createdAt,value
2022-11-13T00:00:12.297Z,6.60
2022-11-13T00:10:14.904Z,6.56
2022-11-13T00:20:18.868Z,6.47
2022-11-13T00:30:21.314Z,6.38
2022-11-13T00:40:23.734Z,6.31
2022-11-13T00:50:26.410Z,6.17
2022-11-13T01:00:28.781Z,6.09
2022-11-13T01:10:31.721Z,6.05
2022-11-13T01:20:34.604Z,6.03
2022-11-13T01:30:39.772Z,6.03
2022-11-13T01:40:48.599Z,5.99
2022-11-13T01:50:50.805Z,5.91
2022-11-13T02:00:53.047Z,5.82
2022-11-13T02:10:55.341Z,5.84
2022-11-13T02:21:03.719Z,5.92
2022-11-13T02:31:08.908Z,6.01
2022-11-13T02:41:11.219Z,6.10
2022-11-13T02:51:14.565Z,6.14
2022-11-13T03:01:17.027Z,6.19
2022-11-13T03:11:19.346Z,6.19
2022-11-13T03:21:21.713Z,6.18
2022-11-13T03:31:24.133Z,6.18
2022-11-13T03:41:26.365Z,6.23
2022-11-13T03:51:28.609Z,6.23
2022-11-13T04:01:31.069Z,6.25
2022-11-13T04:11:33.766Z,6.30
2022-11-13T04:21:36.075Z,6.27
2022-11-13T04:31:38.455Z,6.26
2022-11-13T04:41:59.221Z,6.28
2022-11-13T04:52:01.539Z,6.26
2022-11-13T05:02:04.410Z,6.25
2022-11-13T05:12:08.349Z,6.28
2022-11-13T05:22:10.619Z,6.25
2022-11-13T05:32:13.048Z,6.22
2022-11-13T05:42:15.276Z,6.23
2022-11-13T05:52:17.538Z,6.18
2022-11-13T06:02:19.735Z,6.13
2022-11-13T06:12:21.979Z,6.13
2022-11-13T06:22:24.177Z,6.10
2022-11-13T06:32:26.497Z,6.15
2022-11-13T06:42:28.796Z,6.14
2022-11-13T06:52:31.095Z,6.17
2022-11-13T07:02:33.298Z,6.19
2022-11-13T07:12:35.666Z,6.20
2022-11-13T07:22:37.874Z,6.22
2022-11-13T07:32:40.280Z,6.25
2022-11-13T07:42:42.629Z,6.33
2022-11-13T07:52:45.515Z,6.38
2022-11-13T08:02:48.236Z,6.43
2022-11-13T08:13:02.546Z,6.44
2022-11-13T08:23:06.217Z,6.49
2022-11-13T08:33:08.563Z,6.58
2022-11-13T08:43:11.069Z,6.69
2022-11-13T08:53:13.654Z,6.93
2022-11-13T09:03:16.395Z,7.08
2022-11-13T09:13:18.707Z,7.28
2022-11-13T09:23:21.277Z,7.35
2022-11-13T09:33:23.550Z,7.25
2022-11-13T09:43:28.598Z,7.25
2022-11-13T09:53:35.429Z,7.20
2022-11-13T10:04:00.747Z,7.27
2022-11-13T10:14:17.225Z,7.37
2022-11-13T10:24:27.805Z,7.54
2022-11-13T10:34:33.539Z,7.86
2022-11-13T10:44:36.106Z,8.07
2022-11-13T10:54:38.731Z,7.92
2022-11-13T11:04:41.549Z,7.95
2022-11-13T11:15:02.178Z,7.97
2022-11-13T11:25:18.637Z,8.11
2022-11-13T11:35:39.567Z,8.17
2022-11-13T11:45:47.321Z,8.18
2022-11-13T11:56:10.748Z,8.02
2022-11-13T12:06:33.580Z,7.98
2022-11-13T12:16:54.844Z,7.90
2022-11-13T12:27:22.941Z,7.93
2022-11-13T12:38:07.477Z,7.99
2022-11-13T12:48:22.904Z,8.09
2022-11-13T12:58:33.144Z,8.11
2022-11-13T13:08:50.892Z,8.14
2022-11-13T13:18:53.683Z,8.09
2022-11-13T13:29:01.629Z,8.03
2022-11-13T13:39:23.036Z,8.04
2022-11-13T13:49:27.869Z,8.08
2022-11-13T13:59:34.850Z,8.11
2022-11-13T14:09:37.453Z,8.03
2022-11-13T14:19:40.026Z,7.94
2022-11-13T14:29:51.744Z,7.95
2022-11-13T14:39:56.232Z,7.78
2022-11-13T14:50:28.776Z,7.67
2022-11-13T15:00:40.483Z,7.59
2022-11-13T15:10:44.189Z,7.50
2022-11-13T15:20:47.119Z,7.46
2022-11-13T15:30:50.078Z,7.39
2022-11-13T15:40:54.397Z,7.36
2022-11-13T15:50:57.960Z,7.26
2022-11-13T16:01:00.908Z,7.15
2022-11-13T16:11:03.952Z,7.05
2022-11-13T16:21:07.308Z,6.98
2022-11-13T16:31:09.922Z,6.89
2022-11-13T16:41:14.389Z,6.86
2022-11-13T16:51:17.104Z,6.84
2022-11-13T17:01:22.748Z,6.77
2022-11-13T17:11:27.864Z,6.76
2022-11-13T17:21:30.780Z,6.70
2022-11-13T17:31:33.396Z,6.71
2022-11-13T17:41:37.848Z,6.69
2022-11-13T17:51:40.427Z,6.66
2022-11-13T18:01:42.993Z,6.63
2022-11-13T18:11:45.608Z,6.57
2022-11-13T18:21:47.996Z,6.54
2022-11-13T18:31:50.398Z,6.51
2022-11-13T18:41:53.950Z,6.42
2022-11-13T18:51:56.402Z,6.43
2022-11-13T19:01:58.795Z,6.44
2022-11-13T19:12:01.179Z,6.26
2022-11-13T19:22:03.685Z,6.17
2022-11-13T19:32:06.070Z,6.00
2022-11-13T19:42:08.607Z,5.60
2022-11-13T19:52:10.972Z,5.24
2022-11-13T20:02:14.694Z,4.99
2022-11-13T20:12:17.332Z,4.79
2022-11-13T20:22:20.153Z,4.66
2022-11-13T20:32:22.595Z,4.56
2022-11-13T20:42:26.110Z,4.39
2022-11-13T20:52:29.054Z,4.28
2022-11-13T21:02:31.427Z,4.22
2022-11-13T21:12:33.820Z,4.01
2022-11-13T21:22:36.386Z,3.81
2022-11-13T21:32:39.413Z,3.63
2022-11-13T21:42:41.857Z,3.53
2022-11-13T21:52:44.300Z,3.45
2022-11-13T22:02:46.784Z,3.41
2022-11-13T22:12:49.178Z,3.35
2022-11-13T22:22:51.596Z,3.18
2022-11-13T22:32:54.084Z,3.04
2022-11-13T22:42:56.503Z,2.89
2022-11-13T22:52:58.921Z,2.78
2022-11-13T23:03:01.284Z,2.63
2022-11-13T23:13:03.745Z,2.43
2022-11-13T23:23:06.328Z,2.25
2022-11-13T23:33:08.914Z,2.20
2022-11-13T23:43:11.658Z,2.24
2022-11-13T23:53:14.781Z,2.23
